Saint-Chrysostome, Canada
Current Conditions -  °F | °C
As of 3:00 PM on Saturday 25 Oct 2014 (Local Time) from CYUL Reporting Station
Overcast Overcast  
Wind Chill: 55°   Ceiling: 4000
Heat Index: 55°   Visibility: 15mi
Dew Point: 43°   Wind: 6mph
Humidity: 63%   Direction: 190°S
Pressure: 29.53"   Gusts: NA
Location:  45.1°N, 73.75°W
Report Text: CYUL 251900Z 19005KT 15SM OVC040 13/06 A2953 RMK SC8 PRESFR SLP001 DENSITY ALT 300FT
Loading
Personal Weather Stations






























Interactive Weather Map
Tropical Storm Tracking
New forecast layout! Learn more

10-Day Weather Forecast

Advertisements
Track Severe Weather on mobile